createdAt,value
2019-05-18T00:01:35.876Z,64.35
2019-05-18T00:04:04.736Z,65.83
2019-05-18T00:06:33.281Z,65.01
2019-05-18T00:09:01.884Z,64.81
2019-05-18T00:11:30.401Z,64.66
2019-05-18T00:13:59.394Z,64.79
2019-05-18T00:16:28.340Z,64.83
2019-05-18T00:18:56.862Z,64.61
2019-05-18T00:21:25.394Z,64.54
2019-05-18T00:23:54.524Z,64.33
2019-05-18T00:26:23.031Z,64.36
2019-05-18T00:28:51.581Z,64.02
2019-05-18T00:31:20.319Z,64.06
2019-05-18T00:33:48.825Z,64.10
2019-05-18T00:36:17.347Z,64.40
2019-05-18T00:38:45.933Z,64.41
2019-05-18T00:41:14.433Z,64.50
2019-05-18T00:43:43.048Z,64.63
2019-05-18T00:46:11.573Z,64.59
2019-05-18T00:48:40.084Z,64.62
2019-05-18T00:51:08.613Z,64.73
2019-05-18T00:53:37.116Z,64.89
2019-05-18T00:56:05.799Z,64.96
2019-05-18T00:58:34.811Z,64.97
2019-05-18T01:01:03.324Z,65.11
2019-05-18T01:03:31.903Z,65.09
2019-05-18T01:06:00.453Z,65.09
2019-05-18T01:08:28.970Z,65.10
2019-05-18T01:10:57.850Z,65.24
2019-05-18T01:13:26.358Z,65.16
2019-05-18T01:15:54.855Z,65.04
2019-05-18T01:18:23.357Z,64.82
2019-05-18T01:20:52.113Z,64.67
2019-05-18T01:23:20.630Z,65.11
2019-05-18T01:25:49.139Z,65.30
2019-05-18T01:28:17.742Z,65.21
2019-05-18T01:30:46.466Z,65.18
2019-05-18T01:33:15.014Z,65.50
2019-05-18T01:35:44.185Z,66.28
2019-05-18T01:38:13.004Z,66.37
2019-05-18T01:40:41.852Z,66.37
2019-05-18T01:43:10.678Z,66.12
2019-05-18T01:45:39.189Z,66.01
2019-05-18T01:48:14.191Z,65.81
2019-05-18T01:50:37.957Z,65.72
2019-05-18T01:53:06.470Z,65.45
2019-05-18T01:55:34.970Z,65.03
2019-05-18T01:58:03.554Z,65.08
2019-05-18T02:00:32.101Z,65.12
2019-05-18T02:03:00.605Z,64.86
2019-05-18T02:05:29.103Z,64.72
2019-05-18T02:07:57.771Z,64.67
2019-05-18T02:10:26.287Z,64.58
2019-05-18T02:12:55.136Z,64.29
2019-05-18T02:15:23.879Z,64.33
2019-05-18T02:17:52.415Z,64.49
2019-05-18T02:20:21.572Z,64.59
2019-05-18T02:22:50.075Z,64.68
2019-05-18T02:25:18.668Z,64.74
2019-05-18T02:27:47.201Z,64.70
2019-05-18T02:30:17.522Z,64.58
2019-05-18T02:32:45.984Z,64.68
2019-05-18T02:35:14.503Z,64.79
2019-05-18T02:37:43.005Z,64.88
2019-05-18T02:40:11.500Z,64.87
2019-05-18T02:42:39.997Z,64.85
2019-05-18T02:45:08.592Z,64.69
2019-05-18T02:47:37.106Z,64.68
2019-05-18T02:50:05.661Z,64.71
2019-05-18T02:52:34.162Z,64.69
2019-05-18T02:55:02.938Z,64.67
2019-05-18T02:57:31.710Z,64.54
2019-05-18T03:00:00.626Z,64.51
2019-05-18T03:02:29.150Z,64.49
2019-05-18T03:04:57.947Z,64.61
2019-05-18T03:07:26.448Z,64.88
2019-05-18T03:09:54.954Z,64.93
2019-05-18T03:12:23.566Z,64.92
2019-05-18T03:14:52.070Z,64.89
2019-05-18T03:17:20.579Z,64.93
2019-05-18T03:19:49.087Z,65.13
2019-05-18T03:22:17.817Z,65.28
2019-05-18T03:24:46.331Z,65.39
2019-05-18T03:27:15.165Z,65.41
2019-05-18T03:29:43.685Z,65.26
2019-05-18T03:32:12.183Z,65.17
2019-05-18T03:34:40.703Z,65.06
2019-05-18T03:37:09.179Z,65.00
2019-05-18T03:39:37.721Z,64.95
2019-05-18T03:42:06.483Z,64.92
2019-05-18T03:44:34.984Z,64.68
2019-05-18T03:47:04.094Z,64.59
2019-05-18T03:49:32.840Z,64.30
2019-05-18T03:52:01.345Z,64.13
2019-05-18T03:54:29.834Z,64.14
2019-05-18T03:56:58.664Z,63.96
2019-05-18T03:59:27.277Z,63.87
2019-05-18T04:01:55.760Z,63.85
2019-05-18T04:04:24.617Z,63.81
2019-05-18T04:06:53.103Z,63.63
2019-05-18T04:09:21.617Z,63.66
2019-05-18T04:11:50.113Z,63.62
2019-05-18T04:14:18.871Z,63.60
2019-05-18T04:16:47.703Z,63.37
2019-05-18T04:19:16.617Z,62.99
2019-05-18T04:21:45.121Z,62.77
2019-05-18T04:24:13.616Z,62.57
2019-05-18T04:26:42.143Z,62.48
2019-05-18T04:29:10.653Z,62.50
2019-05-18T04:31:39.183Z,64.45
2019-05-18T04:34:07.692Z,66.36
2019-05-18T04:36:36.177Z,68.70
2019-05-18T04:39:06.191Z,69.95
2019-05-18T04:41:34.769Z,71.17
2019-05-18T04:44:03.289Z,69.69
2019-05-18T04:46:31.791Z,68.14
2019-05-18T04:49:00.296Z,66.94
2019-05-18T04:51:28.803Z,65.67
2019-05-18T04:53:57.282Z,64.42
2019-05-18T04:56:26.172Z,63.37
2019-05-18T04:58:54.664Z,62.50
2019-05-18T05:01:23.520Z,61.71
2019-05-18T05:03:52.004Z,61.22
2019-05-18T05:06:20.500Z,60.86
2019-05-18T05:08:49.232Z,60.33
2019-05-18T05:11:17.724Z,60.20
2019-05-18T05:13:46.509Z,59.58
2019-05-18T05:16:15.059Z,58.63
2019-05-18T05:18:43.557Z,59.44
2019-05-18T05:21:12.396Z,60.32
2019-05-18T05:23:40.885Z,60.57
2019-05-18T05:26:09.392Z,59.72
2019-05-18T05:28:38.252Z,58.06
2019-05-18T05:31:07.032Z,57.14
2019-05-18T05:33:35.532Z,58.43
2019-05-18T05:36:04.461Z,58.75
2019-05-18T05:38:32.956Z,58.75
2019-05-18T05:41:01.922Z,57.46
2019-05-18T05:43:30.421Z,55.49
2019-05-18T05:45:58.909Z,53.99
2019-05-18T05:48:27.421Z,53.64
2019-05-18T05:50:56.353Z,53.25
2019-05-18T05:53:24.863Z,52.19
2019-05-18T05:55:53.619Z,51.42
2019-05-18T05:58:22.242Z,51.90
2019-05-18T06:00:50.727Z,50.36
2019-05-18T06:03:19.553Z,48.93
2019-05-18T06:05:48.037Z,48.13
2019-05-18T06:08:16.548Z,47.05
2019-05-18T06:10:45.607Z,45.74
2019-05-18T06:13:14.409Z,44.68
2019-05-18T06:15:43.155Z,44.60
2019-05-18T06:18:12.536Z,45.12
2019-05-18T06:20:51.167Z,45.39
2019-05-18T06:23:11.276Z,43.19
2019-05-18T06:25:39.769Z,39.69
2019-05-18T06:28:08.327Z,37.23
2019-05-18T06:30:36.915Z,36.43
2019-05-18T06:33:05.408Z,36.22
2019-05-18T06:35:34.168Z,37.52
2019-05-18T06:38:02.942Z,39.96
2019-05-18T06:40:31.472Z,39.86
2019-05-18T06:42:59.954Z,37.97
2019-05-18T06:45:28.481Z,35.83
2019-05-18T06:47:56.985Z,35.57
2019-05-18T06:50:29.620Z,35.22
2019-05-18T06:52:58.472Z,33.66
2019-05-18T06:55:27.074Z,31.89
2019-05-18T06:57:56.824Z,31.41
2019-05-18T07:00:25.383Z,31.60
2019-05-18T07:02:53.892Z,34.05
2019-05-18T07:05:22.705Z,30.98
2019-05-18T07:07:51.324Z,28.69
2019-05-18T07:10:20.396Z,27.16
2019-05-18T07:12:48.917Z,27.28
2019-05-18T07:15:17.445Z,26.84
2019-05-18T07:17:45.971Z,26.78
2019-05-18T07:20:14.507Z,26.63
2019-05-18T07:22:42.990Z,26.27
2019-05-18T07:25:11.492Z,27.79
2019-05-18T07:27:40.257Z,27.21
2019-05-18T07:30:09.038Z,27.53
2019-05-18T07:32:37.701Z,29.46
2019-05-18T07:35:06.328Z,33.34
2019-05-18T07:37:34.903Z,33.05
2019-05-18T07:40:03.448Z,34.83
2019-05-18T07:42:32.609Z,33.26
2019-05-18T07:45:01.549Z,33.18
2019-05-18T07:47:30.107Z,31.52
2019-05-18T07:49:58.602Z,30.95
2019-05-18T07:52:27.677Z,32.06
2019-05-18T07:54:56.222Z,30.73
2019-05-18T07:57:24.948Z,30.03
2019-05-18T07:59:53.441Z,30.39
2019-05-18T08:02:21.962Z,31.33
2019-05-18T08:04:50.429Z,31.81
2019-05-18T08:07:18.934Z,31.57
2019-05-18T08:09:47.426Z,30.03
2019-05-18T08:12:16.372Z,28.49
2019-05-18T08:14:44.943Z,26.79
2019-05-18T08:17:13.437Z,26.63
2019-05-18T08:19:41.950Z,25.03
2019-05-18T08:22:10.492Z,23.91
2019-05-18T08:24:38.977Z,22.13
2019-05-18T08:27:07.760Z,23.85
2019-05-18T08:29:36.230Z,20.34
2019-05-18T08:32:04.735Z,21.05
2019-05-18T08:34:33.224Z,20.57
2019-05-18T08:37:01.729Z,20.18
2019-05-18T08:39:30.297Z,23.03
2019-05-18T08:41:58.882Z,25.01
2019-05-18T08:44:27.375Z,26.29
2019-05-18T08:46:55.929Z,27.48
2019-05-18T08:49:24.787Z,31.96
2019-05-18T08:52:06.184Z,33.20
2019-05-18T08:54:23.548Z,32.62
2019-05-18T08:56:52.041Z,35.93
2019-05-18T08:59:20.531Z,36.63
2019-05-18T09:01:49.061Z,41.61
2019-05-18T09:04:17.865Z,43.27
2019-05-18T09:06:46.451Z,42.24
2019-05-18T09:09:15.225Z,40.24
2019-05-18T09:11:44.040Z,40.61
2019-05-18T09:14:12.539Z,43.58
2019-05-18T09:16:41.042Z,42.22
2019-05-18T09:19:09.545Z,38.68
2019-05-18T09:21:38.043Z,38.47
2019-05-18T09:24:06.569Z,34.73
2019-05-18T09:26:35.057Z,27.49
2019-05-18T09:29:03.637Z,25.04
2019-05-18T09:31:32.133Z,24.42
2019-05-18T09:34:00.618Z,24.89
2019-05-18T09:36:29.121Z,27.01
2019-05-18T09:38:57.691Z,28.42
2019-05-18T09:41:26.907Z,29.42
2019-05-18T09:43:55.431Z,26.90
2019-05-18T09:46:24.222Z,27.71
2019-05-18T09:48:52.820Z,28.40
2019-05-18T09:51:21.567Z,29.91
2019-05-18T09:53:51.890Z,27.91
2019-05-18T09:56:20.613Z,26.83
2019-05-18T09:58:49.131Z,27.00
2019-05-18T10:01:17.906Z,27.62
2019-05-18T10:03:46.393Z,31.03
2019-05-18T10:06:14.883Z,33.65
2019-05-18T10:08:43.648Z,32.57
2019-05-18T10:11:12.141Z,30.07
2019-05-18T10:13:40.638Z,28.16
2019-05-18T10:16:09.153Z,28.01
2019-05-18T10:18:37.692Z,27.94
2019-05-18T10:21:06.532Z,28.83
2019-05-18T10:23:35.028Z,31.65
2019-05-18T10:26:03.534Z,29.21
2019-05-18T10:31:14.856Z,29.31
2019-05-18T10:33:43.738Z,30.99
2019-05-18T10:36:12.499Z,33.95
2019-05-18T10:38:41.240Z,35.91
2019-05-18T10:41:09.987Z,35.99
2019-05-18T10:43:38.481Z,38.24
2019-05-18T10:46:07.071Z,37.03
2019-05-18T10:48:35.564Z,35.19
2019-05-18T10:51:05.638Z,34.19
2019-05-18T10:53:34.372Z,34.70
2019-05-18T10:56:02.864Z,30.84
2019-05-18T10:58:31.393Z,28.22
2019-05-18T11:00:59.879Z,29.16
2019-05-18T11:03:28.385Z,29.29
2019-05-18T11:05:57.179Z,29.64
2019-05-18T11:08:25.659Z,26.34
2019-05-18T11:10:54.253Z,26.28
2019-05-18T11:13:22.823Z,28.19
2019-05-18T11:15:51.322Z,28.74
2019-05-18T11:18:19.807Z,29.97
2019-05-18T11:20:48.315Z,27.50
2019-05-18T11:23:16.877Z,27.42
2019-05-18T11:25:45.378Z,26.02
2019-05-18T11:28:13.959Z,26.51
2019-05-18T11:30:42.816Z,27.92
2019-05-18T11:33:11.306Z,27.78
2019-05-18T11:35:39.940Z,28.28
2019-05-18T11:38:08.437Z,25.89
2019-05-18T11:40:36.942Z,24.43
2019-05-18T11:43:05.447Z,26.24
2019-05-18T11:45:34.224Z,29.53
2019-05-18T11:48:02.755Z,28.93
2019-05-18T11:50:31.529Z,29.44
2019-05-18T11:53:00.026Z,30.29
2019-05-18T11:55:28.619Z,31.32
2019-05-18T11:57:57.144Z,28.97
2019-05-18T12:00:25.658Z,28.14
2019-05-18T12:02:54.154Z,26.96
2019-05-18T12:05:22.696Z,25.23
2019-05-18T12:07:51.865Z,25.30
2019-05-18T12:10:20.401Z,25.48
2019-05-18T12:12:49.015Z,24.74
2019-05-18T12:15:17.518Z,22.36
2019-05-18T12:17:46.681Z,23.02
2019-05-18T12:20:16.221Z,25.36
2019-05-18T12:22:44.760Z,29.81
2019-05-18T12:25:13.305Z,29.09
2019-05-18T12:27:41.927Z,30.50
2019-05-18T12:30:10.801Z,32.70
2019-05-18T12:32:39.574Z,31.65
2019-05-18T12:35:09.023Z,32.80
2019-05-18T12:37:37.537Z,31.65
2019-05-18T12:40:06.227Z,28.98
2019-05-18T12:42:35.035Z,27.12
2019-05-18T12:45:03.978Z,27.23
2019-05-18T12:47:32.475Z,29.23
2019-05-18T12:50:00.977Z,28.57
2019-05-18T12:52:29.733Z,25.86
2019-05-18T12:54:58.480Z,26.71
2019-05-18T12:57:26.999Z,28.61
2019-05-18T12:59:55.817Z,27.44
2019-05-18T13:02:24.325Z,27.99
2019-05-18T13:04:52.824Z,30.25
2019-05-18T13:07:21.365Z,27.78
2019-05-18T13:09:49.881Z,26.78
2019-05-18T13:12:18.426Z,25.50
2019-05-18T13:14:46.932Z,24.31
2019-05-18T13:17:15.517Z,26.57
2019-05-18T13:19:49.534Z,26.01
2019-05-18T13:22:18.038Z,24.93
2019-05-18T13:24:47.124Z,23.79
2019-05-18T13:27:15.668Z,24.97
2019-05-18T13:29:44.247Z,25.25
2019-05-18T13:32:13.089Z,26.15
2019-05-18T13:34:41.583Z,26.05
2019-05-18T13:37:10.093Z,25.05
2019-05-18T13:39:39.182Z,24.98
2019-05-18T13:42:07.689Z,26.07
2019-05-18T13:44:38.107Z,25.13
2019-05-18T13:47:06.407Z,27.31
2019-05-18T13:49:34.971Z,25.98
2019-05-18T13:52:03.572Z,23.62
2019-05-18T13:54:32.418Z,22.82
2019-05-18T13:57:00.922Z,21.62
2019-05-18T13:59:29.417Z,22.55
2019-05-18T14:01:58.381Z,24.95
2019-05-18T14:04:26.889Z,25.76
2019-05-18T14:06:55.667Z,25.34
2019-05-18T14:09:24.459Z,26.05
2019-05-18T14:11:53.203Z,25.41
2019-05-18T14:14:21.742Z,23.22
2019-05-18T14:16:50.490Z,21.22
2019-05-18T14:19:19.001Z,20.90
2019-05-18T14:21:47.496Z,24.83
2019-05-18T14:24:16.002Z,25.47
2019-05-18T14:26:44.500Z,24.23
2019-05-18T14:29:13.345Z,23.65
2019-05-18T14:31:41.858Z,22.09
2019-05-18T14:34:10.454Z,23.24
2019-05-18T14:36:38.944Z,25.95
2019-05-18T14:39:07.452Z,27.73
2019-05-18T14:41:35.982Z,28.45
2019-05-18T14:44:05.060Z,28.14
2019-05-18T14:46:33.577Z,27.18
2019-05-18T14:49:02.097Z,27.04
2019-05-18T14:51:30.877Z,26.38
2019-05-18T14:53:59.384Z,28.80
2019-05-18T14:56:27.880Z,29.67
2019-05-18T14:58:56.808Z,30.21
2019-05-18T15:01:25.380Z,31.10
2019-05-18T15:03:54.166Z,31.80
2019-05-18T15:06:23.124Z,33.18
2019-05-18T15:08:51.948Z,41.61
2019-05-18T15:11:20.542Z,45.00
2019-05-18T15:13:49.489Z,48.48
2019-05-18T15:16:18.319Z,59.31
2019-05-18T15:18:47.198Z,68.61
2019-05-18T15:21:15.972Z,75.00
2019-05-18T15:23:44.842Z,76.93
2019-05-18T15:26:13.627Z,73.29
2019-05-18T15:28:42.147Z,70.43
2019-05-18T15:31:10.642Z,68.04
2019-05-18T15:33:39.141Z,68.29
2019-05-18T15:36:07.982Z,66.21
2019-05-18T15:38:36.540Z,65.92
2019-05-18T15:41:05.033Z,61.41
2019-05-18T15:43:33.515Z,64.28
2019-05-18T15:46:02.016Z,64.83
2019-05-18T15:48:30.526Z,64.94
2019-05-18T15:50:59.418Z,63.03
2019-05-18T15:53:28.586Z,61.49
2019-05-18T15:56:05.319Z,59.29
2019-05-18T15:58:27.286Z,55.62
2019-05-18T16:00:55.864Z,54.86
2019-05-18T16:03:24.714Z,58.25
2019-05-18T16:05:53.567Z,58.98
2019-05-18T16:08:22.365Z,58.30
2019-05-18T16:10:50.867Z,55.96
2019-05-18T16:13:19.668Z,55.43
2019-05-18T16:15:48.169Z,54.71
2019-05-18T16:18:16.740Z,53.46
2019-05-18T16:20:45.233Z,51.96
2019-05-18T16:23:13.725Z,50.64
2019-05-18T16:25:42.213Z,51.67
2019-05-18T16:28:11.029Z,48.73
2019-05-18T16:30:39.820Z,48.39
2019-05-18T16:33:08.317Z,50.23
2019-05-18T16:35:36.805Z,47.92
2019-05-18T16:38:05.606Z,47.44
2019-05-18T16:40:34.092Z,46.13
2019-05-18T16:43:02.626Z,42.84
2019-05-18T16:45:31.173Z,43.33
2019-05-18T16:47:59.770Z,43.57
2019-05-18T16:50:28.256Z,45.54
2019-05-18T16:52:56.759Z,44.12
2019-05-18T16:55:25.252Z,45.09
2019-05-18T16:57:53.784Z,44.00
2019-05-18T17:00:22.266Z,44.08
2019-05-18T17:02:51.044Z,44.45
2019-05-18T17:05:19.517Z,43.35
2019-05-18T17:07:48.016Z,42.77
2019-05-18T17:10:16.614Z,41.72
2019-05-18T17:12:45.106Z,43.10
2019-05-18T17:15:13.604Z,42.68
2019-05-18T17:17:43.293Z,43.42
2019-05-18T17:20:11.766Z,43.70
2019-05-18T17:22:40.266Z,43.50
2019-05-18T17:25:08.770Z,43.14
2019-05-18T17:27:37.572Z,43.76
2019-05-18T17:30:06.439Z,43.52
2019-05-18T17:32:35.165Z,43.52
2019-05-18T17:35:03.855Z,43.11
2019-05-18T17:37:32.684Z,43.69
2019-05-18T17:40:01.418Z,43.33
2019-05-18T17:42:29.900Z,43.64
2019-05-18T17:44:58.458Z,44.42
2019-05-18T17:47:29.510Z,43.58
2019-05-18T17:49:57.220Z,44.74
2019-05-18T17:52:25.723Z,44.02
2019-05-18T17:54:54.233Z,43.60
2019-05-18T17:57:22.713Z,44.61
2019-05-18T17:59:51.558Z,44.12
2019-05-18T18:02:20.047Z,44.80
2019-05-18T18:04:49.128Z,44.98
2019-05-18T18:07:17.612Z,44.60
2019-05-18T18:09:46.122Z,44.66
2019-05-18T18:12:14.616Z,45.03
2019-05-18T18:14:43.120Z,45.29
2019-05-18T18:17:11.952Z,45.21
2019-05-18T18:19:40.449Z,44.95
2019-05-18T18:22:08.952Z,44.69
2019-05-18T18:24:37.445Z,44.59
2019-05-18T18:27:05.956Z,44.76
2019-05-18T18:29:34.445Z,44.17
2019-05-18T18:32:02.971Z,43.64
2019-05-18T18:34:31.446Z,43.87
2019-05-18T18:36:59.994Z,43.33
2019-05-18T18:39:28.492Z,42.93
2019-05-18T18:41:57.292Z,42.76
2019-05-18T18:44:25.804Z,42.69
2019-05-18T18:46:54.298Z,42.81
2019-05-18T18:49:22.803Z,42.32
2019-05-18T18:51:51.379Z,42.29
2019-05-18T18:54:19.861Z,42.35
2019-05-18T18:56:48.699Z,42.86
2019-05-18T18:59:17.197Z,47.50
2019-05-18T19:01:45.710Z,49.67
2019-05-18T19:04:14.295Z,50.47
2019-05-18T19:06:42.881Z,49.56
2019-05-18T19:09:11.369Z,49.38
2019-05-18T19:11:40.113Z,50.38
2019-05-18T19:14:08.613Z,50.87
2019-05-18T19:16:37.392Z,50.56
2019-05-18T19:19:05.915Z,50.28
2019-05-18T19:21:34.718Z,50.24
2019-05-18T19:24:03.289Z,50.67
2019-05-18T19:26:31.795Z,50.90
2019-05-18T19:29:00.601Z,51.92
2019-05-18T19:31:29.411Z,51.76
2019-05-18T19:33:57.952Z,52.09
2019-05-18T19:36:26.531Z,53.07
2019-05-18T19:38:55.281Z,53.07
2019-05-18T19:41:23.787Z,53.42
2019-05-18T19:43:52.391Z,53.45
2019-05-18T19:46:20.880Z,53.31
2019-05-18T19:48:49.376Z,54.04
2019-05-18T19:51:17.865Z,54.94
2019-05-18T19:53:46.368Z,56.49
2019-05-18T19:56:14.860Z,55.89
2019-05-18T19:58:43.645Z,56.82
2019-05-18T20:01:12.159Z,56.07
2019-05-18T20:03:40.967Z,54.91
2019-05-18T20:06:09.464Z,54.89
2019-05-18T20:08:38.021Z,53.96
2019-05-18T20:11:06.456Z,54.91
2019-05-18T20:13:34.953Z,58.00
2019-05-18T20:16:03.767Z,60.76
2019-05-18T20:18:32.516Z,61.88
2019-05-18T20:21:00.997Z,61.84
2019-05-18T20:23:29.826Z,64.40
2019-05-18T20:25:58.417Z,64.62
2019-05-18T20:28:26.919Z,67.53
2019-05-18T20:30:55.403Z,66.55
2019-05-18T20:33:24.467Z,66.31
2019-05-18T20:35:53.183Z,65.81
2019-05-18T20:38:21.691Z,65.72
2019-05-18T20:40:50.164Z,64.90
2019-05-18T20:43:18.655Z,65.03
2019-05-18T20:45:47.396Z,64.34
2019-05-18T20:48:16.999Z,63.65
2019-05-18T20:50:45.541Z,63.47
2019-05-18T20:53:14.022Z,63.79
2019-05-18T20:55:42.525Z,63.87
2019-05-18T20:58:11.016Z,63.86
2019-05-18T21:00:39.519Z,63.97
2019-05-18T21:03:08.328Z,62.96
2019-05-18T21:05:36.823Z,63.12
2019-05-18T21:08:05.324Z,63.34
2019-05-18T21:10:33.900Z,65.23
2019-05-18T21:13:02.415Z,70.22
2019-05-18T21:15:30.915Z,73.46
2019-05-18T21:17:59.422Z,75.22
2019-05-18T21:20:28.213Z,74.53
2019-05-18T21:22:56.708Z,72.36
2019-05-18T21:25:25.501Z,70.78
2019-05-18T21:27:53.975Z,70.51
2019-05-18T21:30:22.469Z,72.75
2019-05-18T21:32:50.949Z,74.93
2019-05-18T21:35:19.438Z,74.47
2019-05-18T21:37:47.929Z,77.30
2019-05-18T21:40:16.458Z,76.89
2019-05-18T21:42:45.261Z,77.44
2019-05-18T21:45:13.756Z,78.29
2019-05-18T21:47:42.269Z,76.19
2019-05-18T21:50:10.832Z,76.27
2019-05-18T21:52:41.835Z,76.33
2019-05-18T21:55:09.923Z,75.54
2019-05-18T21:57:38.434Z,76.00
2019-05-18T22:00:06.987Z,75.40
2019-05-18T22:02:35.561Z,76.13
2019-05-18T22:05:04.122Z,71.77
2019-05-18T22:07:32.615Z,74.75
2019-05-18T22:10:01.151Z,75.47
2019-05-18T22:12:29.921Z,77.07
2019-05-18T22:14:58.399Z,76.62
2019-05-18T22:17:27.160Z,76.24
2019-05-18T22:19:55.722Z,75.73
2019-05-18T22:22:24.224Z,75.33
2019-05-18T22:24:52.706Z,75.29
2019-05-18T22:27:21.194Z,75.31
2019-05-18T22:29:49.702Z,73.84
2019-05-18T22:32:18.230Z,72.97
2019-05-18T22:34:46.725Z,72.39
2019-05-18T22:37:15.210Z,72.23
2019-05-18T22:39:43.692Z,71.65
2019-05-18T22:42:12.733Z,72.96
2019-05-18T22:44:41.547Z,74.07
2019-05-18T22:47:10.296Z,76.84
2019-05-18T22:49:38.785Z,78.71
2019-05-18T22:52:07.277Z,78.05
2019-05-18T22:54:35.877Z,75.93
2019-05-18T22:57:04.355Z,73.63
2019-05-18T22:59:32.853Z,72.09
2019-05-18T23:02:01.346Z,71.28
2019-05-18T23:04:30.555Z,70.45
2019-05-18T23:06:59.029Z,71.67
2019-05-18T23:09:27.617Z,75.73
2019-05-18T23:11:56.578Z,74.58
2019-05-18T23:14:25.351Z,72.47
2019-05-18T23:16:53.857Z,74.52
2019-05-18T23:19:22.725Z,73.28
2019-05-18T23:21:51.216Z,71.97
2019-05-18T23:24:19.716Z,71.45
2019-05-18T23:26:48.207Z,71.47
2019-05-18T23:29:16.739Z,71.77
2019-05-18T23:31:45.224Z,72.22
2019-05-18T23:34:14.041Z,71.65
2019-05-18T23:36:42.812Z,71.97
2019-05-18T23:39:11.309Z,72.42
2019-05-18T23:41:39.806Z,72.61
2019-05-18T23:44:08.572Z,73.11
2019-05-18T23:46:37.104Z,73.30
2019-05-18T23:49:10.746Z,73.81
2019-05-18T23:51:36.160Z,73.32
2019-05-18T23:54:04.690Z,73.05
2019-05-18T23:56:33.478Z,72.33
2019-05-18T23:59:02.021Z,71.43
